sensor_id;sensor_type;location;lat;lon;timestamp;P1;durP1;ratioP1;P2;durP2;ratioP2
4500;SDS011;2263;54.654;9.410;2023-01-26T00:01:24;28.00;;;12.73;;
4500;SDS011;2263;54.654;9.410;2023-01-26T00:03:56;28.63;;;12.40;;
4500;SDS011;2263;54.654;9.410;2023-01-26T00:06:26;26.73;;;11.87;;
4500;SDS011;2263;54.654;9.410;2023-01-26T00:08:53;27.67;;;12.47;;
4500;SDS011;2263;54.654;9.410;2023-01-26T00:11:25;27.80;;;12.33;;
4500;SDS011;2263;54.654;9.410;2023-01-26T00:13:53;29.80;;;11.43;;
4500;SDS011;2263;54.654;9.410;2023-01-26T00:16:21;33.80;;;12.67;;
4500;SDS011;2263;54.654;9.410;2023-01-26T00:18:49;25.53;;;11.20;;
4500;SDS011;2263;54.654;9.410;2023-01-26T00:21:17;29.60;;;13.67;;
4500;SDS011;2263;54.654;9.410;2023-01-26T00:23:46;30.17;;;12.63;;
4500;SDS011;2263;54.654;9.410;2023-01-26T00:26:15;26.07;;;12.70;;
4500;SDS011;2263;54.654;9.410;2023-01-26T00:28:43;25.60;;;11.67;;
4500;SDS011;2263;54.654;9.410;2023-01-26T00:31:11;24.80;;;10.00;;
4500;SDS011;2263;54.654;9.410;2023-01-26T00:33:41;30.20;;;12.40;;
4500;SDS011;2263;54.654;9.410;2023-01-26T00:36:08;19.70;;;9.60;;
4500;SDS011;2263;54.654;9.410;2023-01-26T00:38:36;26.70;;;13.73;;
4500;SDS011;2263;54.654;9.410;2023-01-26T00:41:04;27.97;;;12.40;;
4500;SDS011;2263;54.654;9.410;2023-01-26T00:43:31;25.77;;;12.37;;
4500;SDS011;2263;54.654;9.410;2023-01-26T00:45:58;21.83;;;11.90;;
4500;SDS011;2263;54.654;9.410;2023-01-26T00:48:25;26.37;;;11.77;;
4500;SDS011;2263;54.654;9.410;2023-01-26T00:50:52;24.30;;;11.23;;
4500;SDS011;2263;54.654;9.410;2023-01-26T00:53:19;27.50;;;12.30;;
4500;SDS011;2263;54.654;9.410;2023-01-26T00:55:46;23.80;;;11.00;;
4500;SDS011;2263;54.654;9.410;2023-01-26T00:58:13;22.30;;;11.00;;
4500;SDS011;2263;54.654;9.410;2023-01-26T01:00:40;21.13;;;9.80;;
4500;SDS011;2263;54.654;9.410;2023-01-26T01:03:08;19.00;;;11.00;;
4500;SDS011;2263;54.654;9.410;2023-01-26T01:05:35;17.83;;;9.00;;
4500;SDS011;2263;54.654;9.410;2023-01-26T01:08:02;24.50;;;12.73;;
4500;SDS011;2263;54.654;9.410;2023-01-26T01:10:29;22.43;;;10.33;;
4500;SDS011;2263;54.654;9.410;2023-01-26T01:12:56;23.67;;;9.10;;
4500;SDS011;2263;54.654;9.410;2023-01-26T01:15:23;16.57;;;9.53;;
4500;SDS011;2263;54.654;9.410;2023-01-26T01:17:51;21.83;;;10.90;;
4500;SDS011;2263;54.654;9.410;2023-01-26T01:20:21;16.47;;;8.87;;
4500;SDS011;2263;54.654;9.410;2023-01-26T01:22:49;21.77;;;9.90;;
4500;SDS011;2263;54.654;9.410;2023-01-26T01:25:16;17.97;;;8.67;;
4500;SDS011;2263;54.654;9.410;2023-01-26T01:27:44;16.00;;;7.70;;
4500;SDS011;2263;54.654;9.410;2023-01-26T01:30:11;15.40;;;8.47;;
4500;SDS011;2263;54.654;9.410;2023-01-26T01:32:39;14.13;;;7.63;;
4500;SDS011;2263;54.654;9.410;2023-01-26T01:35:06;14.43;;;8.27;;
4500;SDS011;2263;54.654;9.410;2023-01-26T01:37:34;19.20;;;9.47;;
4500;SDS011;2263;54.654;9.410;2023-01-26T01:40:02;17.50;;;8.23;;
4500;SDS011;2263;54.654;9.410;2023-01-26T01:42:29;15.03;;;6.80;;
4500;SDS011;2263;54.654;9.410;2023-01-26T01:48:05;14.37;;;7.70;;
4500;SDS011;2263;54.654;9.410;2023-01-26T01:50:39;14.53;;;7.80;;
4500;SDS011;2263;54.654;9.410;2023-01-26T01:53:08;14.67;;;6.90;;
4500;SDS011;2263;54.654;9.410;2023-01-26T01:55:40;12.40;;;7.13;;
4500;SDS011;2263;54.654;9.410;2023-01-26T01:58:07;11.10;;;6.20;;
4500;SDS011;2263;54.654;9.410;2023-01-26T02:00:35;17.00;;;8.03;;
4500;SDS011;2263;54.654;9.410;2023-01-26T02:03:05;14.13;;;6.30;;
4500;SDS011;2263;54.654;9.410;2023-01-26T02:11:14;14.40;;;7.63;;
4500;SDS011;2263;54.654;9.410;2023-01-26T02:13:45;15.20;;;7.97;;
4500;SDS011;2263;54.654;9.410;2023-01-26T02:16:14;12.83;;;7.50;;
4500;SDS011;2263;54.654;9.410;2023-01-26T02:18:42;12.47;;;7.20;;
4500;SDS011;2263;54.654;9.410;2023-01-26T02:21:11;13.50;;;6.90;;
4500;SDS011;2263;54.654;9.410;2023-01-26T02:26:27;13.47;;;7.13;;
4500;SDS011;2263;54.654;9.410;2023-01-26T02:28:56;15.90;;;8.00;;
4500;SDS011;2263;54.654;9.410;2023-01-26T02:31:25;11.50;;;7.20;;
4500;SDS011;2263;54.654;9.410;2023-01-26T02:33:53;12.03;;;6.70;;
4500;SDS011;2263;54.654;9.410;2023-01-26T02:36:24;10.87;;;6.23;;
4500;SDS011;2263;54.654;9.410;2023-01-26T02:39:13;16.27;;;7.43;;
4500;SDS011;2263;54.654;9.410;2023-01-26T02:41:43;8.73;;;5.90;;
4500;SDS011;2263;54.654;9.410;2023-01-26T02:44:30;9.43;;;6.20;;
4500;SDS011;2263;54.654;9.410;2023-01-26T02:46:58;11.60;;;7.07;;
4500;SDS011;2263;54.654;9.410;2023-01-26T02:49:25;14.10;;;7.87;;
4500;SDS011;2263;54.654;9.410;2023-01-26T02:52:10;14.50;;;6.90;;
4500;SDS011;2263;54.654;9.410;2023-01-26T02:54:38;14.23;;;7.30;;
4500;SDS011;2263;54.654;9.410;2023-01-26T02:57:23;10.40;;;6.27;;
4500;SDS011;2263;54.654;9.410;2023-01-26T02:59:51;12.30;;;7.20;;
4500;SDS011;2263;54.654;9.410;2023-01-26T03:02:18;10.77;;;6.30;;
4500;SDS011;2263;54.654;9.410;2023-01-26T03:04:46;15.93;;;8.00;;
4500;SDS011;2263;54.654;9.410;2023-01-26T03:07:13;13.73;;;9.60;;
4500;SDS011;2263;54.654;9.410;2023-01-26T03:09:40;13.37;;;6.87;;
4500;SDS011;2263;54.654;9.410;2023-01-26T03:12:07;13.37;;;7.70;;
4500;SDS011;2263;54.654;9.410;2023-01-26T03:14:34;14.27;;;6.50;;
4500;SDS011;2263;54.654;9.410;2023-01-26T03:17:01;15.80;;;8.87;;
4500;SDS011;2263;54.654;9.410;2023-01-26T03:19:28;16.07;;;8.20;;
4500;SDS011;2263;54.654;9.410;2023-01-26T03:22:14;14.40;;;8.67;;
4500;SDS011;2263;54.654;9.410;2023-01-26T03:24:59;13.40;;;8.13;;
4500;SDS011;2263;54.654;9.410;2023-01-26T03:28:02;11.50;;;6.93;;
4500;SDS011;2263;54.654;9.410;2023-01-26T03:30:29;15.27;;;7.47;;
4500;SDS011;2263;54.654;9.410;2023-01-26T03:32:56;14.97;;;8.40;;
4500;SDS011;2263;54.654;9.410;2023-01-26T03:35:24;16.47;;;7.93;;
4500;SDS011;2263;54.654;9.410;2023-01-26T03:37:51;14.57;;;8.07;;
4500;SDS011;2263;54.654;9.410;2023-01-26T03:40:20;14.70;;;8.37;;
4500;SDS011;2263;54.654;9.410;2023-01-26T03:43:06;14.27;;;8.27;;
4500;SDS011;2263;54.654;9.410;2023-01-26T03:45:52;19.00;;;9.20;;
4500;SDS011;2263;54.654;9.410;2023-01-26T03:48:38;15.57;;;8.60;;
4500;SDS011;2263;54.654;9.410;2023-01-26T03:51:24;18.30;;;9.67;;
4500;SDS011;2263;54.654;9.410;2023-01-26T03:54:09;13.30;;;8.20;;
4500;SDS011;2263;54.654;9.410;2023-01-26T03:56:55;21.03;;;9.93;;
4500;SDS011;2263;54.654;9.410;2023-01-26T03:59:22;14.50;;;7.53;;
4500;SDS011;2263;54.654;9.410;2023-01-26T04:02:04;15.37;;;8.47;;
4500;SDS011;2263;54.654;9.410;2023-01-26T04:04:51;16.50;;;9.13;;
4500;SDS011;2263;54.654;9.410;2023-01-26T04:07:37;16.00;;;9.27;;
4500;SDS011;2263;54.654;9.410;2023-01-26T04:10:24;13.40;;;8.00;;
4500;SDS011;2263;54.654;9.410;2023-01-26T04:12:51;11.57;;;6.87;;
4500;SDS011;2263;54.654;9.410;2023-01-26T04:15:37;21.10;;;10.27;;
4500;SDS011;2263;54.654;9.410;2023-01-26T04:18:23;21.50;;;8.70;;
4500;SDS011;2263;54.654;9.410;2023-01-26T04:21:08;14.67;;;8.27;;
4500;SDS011;2263;54.654;9.410;2023-01-26T04:23:59;19.47;;;9.37;;
4500;SDS011;2263;54.654;9.410;2023-01-26T04:26:28;15.63;;;7.70;;
4500;SDS011;2263;54.654;9.410;2023-01-26T04:29:03;16.80;;;8.67;;
4500;SDS011;2263;54.654;9.410;2023-01-26T04:31:31;15.03;;;8.37;;
4500;SDS011;2263;54.654;9.410;2023-01-26T04:33:59;14.67;;;8.40;;
4500;SDS011;2263;54.654;9.410;2023-01-26T04:36:27;14.20;;;8.33;;
4500;SDS011;2263;54.654;9.410;2023-01-26T04:38:55;19.83;;;9.03;;
4500;SDS011;2263;54.654;9.410;2023-01-26T04:41:22;15.10;;;8.33;;
4500;SDS011;2263;54.654;9.410;2023-01-26T04:43:51;11.30;;;7.33;;
4500;SDS011;2263;54.654;9.410;2023-01-26T04:46:18;18.80;;;8.50;;
4500;SDS011;2263;54.654;9.410;2023-01-26T04:48:45;17.63;;;8.43;;
4500;SDS011;2263;54.654;9.410;2023-01-26T04:51:15;20.43;;;8.90;;
4500;SDS011;2263;54.654;9.410;2023-01-26T04:53:45;16.03;;;7.73;;
4500;SDS011;2263;54.654;9.410;2023-01-26T04:58:53;13.37;;;8.30;;
4500;SDS011;2263;54.654;9.410;2023-01-26T05:01:21;14.47;;;8.17;;
4500;SDS011;2263;54.654;9.410;2023-01-26T05:03:49;17.70;;;8.63;;
4500;SDS011;2263;54.654;9.410;2023-01-26T05:06:16;18.37;;;8.63;;
4500;SDS011;2263;54.654;9.410;2023-01-26T05:08:43;21.17;;;9.57;;
4500;SDS011;2263;54.654;9.410;2023-01-26T05:11:10;17.03;;;8.80;;
4500;SDS011;2263;54.654;9.410;2023-01-26T05:13:37;20.00;;;8.97;;
4500;SDS011;2263;54.654;9.410;2023-01-26T05:16:05;19.63;;;9.10;;
4500;SDS011;2263;54.654;9.410;2023-01-26T05:18:33;19.67;;;10.53;;
4500;SDS011;2263;54.654;9.410;2023-01-26T05:21:03;18.07;;;9.17;;
4500;SDS011;2263;54.654;9.410;2023-01-26T05:23:33;20.03;;;11.70;;
4500;SDS011;2263;54.654;9.410;2023-01-26T05:26:00;20.10;;;10.60;;
4500;SDS011;2263;54.654;9.410;2023-01-26T05:28:27;17.10;;;8.60;;
4500;SDS011;2263;54.654;9.410;2023-01-26T05:30:55;20.07;;;8.80;;
4500;SDS011;2263;54.654;9.410;2023-01-26T05:33:25;17.70;;;9.13;;
4500;SDS011;2263;54.654;9.410;2023-01-26T05:35:52;16.70;;;8.93;;
4500;SDS011;2263;54.654;9.410;2023-01-26T05:38:20;21.00;;;11.03;;
4500;SDS011;2263;54.654;9.410;2023-01-26T05:40:47;15.47;;;9.00;;
4500;SDS011;2263;54.654;9.410;2023-01-26T05:43:14;17.93;;;7.90;;
4500;SDS011;2263;54.654;9.410;2023-01-26T05:45:41;15.13;;;8.73;;
4500;SDS011;2263;54.654;9.410;2023-01-26T05:48:08;22.33;;;10.07;;
4500;SDS011;2263;54.654;9.410;2023-01-26T05:50:35;21.70;;;9.03;;
4500;SDS011;2263;54.654;9.410;2023-01-26T05:53:02;18.60;;;9.57;;
4500;SDS011;2263;54.654;9.410;2023-01-26T05:55:29;25.10;;;10.17;;
4500;SDS011;2263;54.654;9.410;2023-01-26T05:57:57;18.17;;;9.90;;
4500;SDS011;2263;54.654;9.410;2023-01-26T06:00:24;20.90;;;10.90;;
4500;SDS011;2263;54.654;9.410;2023-01-26T06:02:51;25.67;;;11.03;;
4500;SDS011;2263;54.654;9.410;2023-01-26T06:05:19;21.13;;;9.00;;
4500;SDS011;2263;54.654;9.410;2023-01-26T06:07:46;23.53;;;11.03;;
4500;SDS011;2263;54.654;9.410;2023-01-26T06:10:13;20.80;;;10.60;;
4500;SDS011;2263;54.654;9.410;2023-01-26T06:12:40;26.40;;;11.07;;
4500;SDS011;2263;54.654;9.410;2023-01-26T06:15:08;18.30;;;10.20;;
4500;SDS011;2263;54.654;9.410;2023-01-26T06:17:38;19.93;;;9.10;;
4500;SDS011;2263;54.654;9.410;2023-01-26T06:20:06;23.40;;;10.33;;
4500;SDS011;2263;54.654;9.410;2023-01-26T06:22:34;21.70;;;9.30;;
4500;SDS011;2263;54.654;9.410;2023-01-26T06:25:01;16.80;;;9.40;;
4500;SDS011;2263;54.654;9.410;2023-01-26T06:27:28;18.00;;;9.93;;
4500;SDS011;2263;54.654;9.410;2023-01-26T06:29:55;22.17;;;10.67;;
4500;SDS011;2263;54.654;9.410;2023-01-26T06:32:23;19.43;;;9.33;;
4500;SDS011;2263;54.654;9.410;2023-01-26T06:34:50;18.80;;;11.00;;
4500;SDS011;2263;54.654;9.410;2023-01-26T06:37:21;23.13;;;12.53;;
4500;SDS011;2263;54.654;9.410;2023-01-26T06:39:49;17.23;;;9.37;;
4500;SDS011;2263;54.654;9.410;2023-01-26T06:42:19;22.87;;;10.70;;
4500;SDS011;2263;54.654;9.410;2023-01-26T06:44:46;23.73;;;10.60;;
4500;SDS011;2263;54.654;9.410;2023-01-26T06:47:13;19.17;;;10.17;;
4500;SDS011;2263;54.654;9.410;2023-01-26T06:49:40;19.50;;;9.70;;
4500;SDS011;2263;54.654;9.410;2023-01-26T06:52:41;20.90;;;10.30;;
4500;SDS011;2263;54.654;9.410;2023-01-26T06:55:02;23.13;;;11.30;;
4500;SDS011;2263;54.654;9.410;2023-01-26T06:57:30;26.53;;;12.10;;
4500;SDS011;2263;54.654;9.410;2023-01-26T06:59:57;26.97;;;11.80;;
4500;SDS011;2263;54.654;9.410;2023-01-26T07:02:24;25.00;;;10.97;;
4500;SDS011;2263;54.654;9.410;2023-01-26T07:04:53;27.80;;;11.37;;
4500;SDS011;2263;54.654;9.410;2023-01-26T07:07:20;25.23;;;9.40;;
4500;SDS011;2263;54.654;9.410;2023-01-26T07:09:47;19.50;;;10.97;;
4500;SDS011;2263;54.654;9.410;2023-01-26T07:12:14;21.73;;;10.63;;
4500;SDS011;2263;54.654;9.410;2023-01-26T07:14:44;23.57;;;12.10;;
4500;SDS011;2263;54.654;9.410;2023-01-26T07:17:12;23.70;;;10.97;;
4500;SDS011;2263;54.654;9.410;2023-01-26T07:19:39;26.87;;;11.73;;
4500;SDS011;2263;54.654;9.410;2023-01-26T07:22:06;23.60;;;10.77;;
4500;SDS011;2263;54.654;9.410;2023-01-26T07:24:33;25.70;;;11.40;;
4500;SDS011;2263;54.654;9.410;2023-01-26T07:27:00;26.43;;;11.53;;
4500;SDS011;2263;54.654;9.410;2023-01-26T07:29:28;21.63;;;10.50;;
4500;SDS011;2263;54.654;9.410;2023-01-26T07:31:55;22.50;;;9.20;;
4500;SDS011;2263;54.654;9.410;2023-01-26T07:34:22;22.90;;;10.87;;
4500;SDS011;2263;54.654;9.410;2023-01-26T07:36:50;25.60;;;13.47;;
4500;SDS011;2263;54.654;9.410;2023-01-26T07:39:18;26.13;;;10.60;;
4500;SDS011;2263;54.654;9.410;2023-01-26T07:41:45;23.43;;;11.07;;
4500;SDS011;2263;54.654;9.410;2023-01-26T07:44:12;25.33;;;10.87;;
4500;SDS011;2263;54.654;9.410;2023-01-26T07:46:39;24.27;;;11.00;;
4500;SDS011;2263;54.654;9.410;2023-01-26T07:49:07;20.93;;;9.87;;
4500;SDS011;2263;54.654;9.410;2023-01-26T07:51:38;24.60;;;11.23;;
4500;SDS011;2263;54.654;9.410;2023-01-26T07:54:06;26.10;;;11.20;;
4500;SDS011;2263;54.654;9.410;2023-01-26T07:56:36;21.00;;;9.60;;
4500;SDS011;2263;54.654;9.410;2023-01-26T07:59:04;23.13;;;9.90;;
4500;SDS011;2263;54.654;9.410;2023-01-26T08:01:31;22.50;;;11.20;;
4500;SDS011;2263;54.654;9.410;2023-01-26T08:03:58;73.77;;;44.27;;
4500;SDS011;2263;54.654;9.410;2023-01-26T08:06:25;38.97;;;23.07;;
4500;SDS011;2263;54.654;9.410;2023-01-26T08:08:52;128.17;;;98.00;;
4500;SDS011;2263;54.654;9.410;2023-01-26T08:11:19;96.53;;;66.60;;
4500;SDS011;2263;54.654;9.410;2023-01-26T08:13:48;99.20;;;70.47;;
4500;SDS011;2263;54.654;9.410;2023-01-26T08:16:18;96.77;;;66.90;;
4500;SDS011;2263;54.654;9.410;2023-01-26T08:18:46;87.10;;;64.77;;
4500;SDS011;2263;54.654;9.410;2023-01-26T08:21:14;87.47;;;62.57;;
4500;SDS011;2263;54.654;9.410;2023-01-26T08:23:48;82.07;;;59.00;;
4500;SDS011;2263;54.654;9.410;2023-01-26T08:26:16;85.23;;;57.77;;
4500;SDS011;2263;54.654;9.410;2023-01-26T08:28:45;79.70;;;55.23;;
4500;SDS011;2263;54.654;9.410;2023-01-26T08:31:13;79.40;;;51.93;;
4500;SDS011;2263;54.654;9.410;2023-01-26T08:33:48;63.53;;;49.10;;
4500;SDS011;2263;54.654;9.410;2023-01-26T08:36:17;65.47;;;47.80;;
4500;SDS011;2263;54.654;9.410;2023-01-26T08:38:48;64.53;;;46.90;;
4500;SDS011;2263;54.654;9.410;2023-01-26T08:41:16;56.17;;;43.40;;
4500;SDS011;2263;54.654;9.410;2023-01-26T08:43:44;62.77;;;41.40;;
4500;SDS011;2263;54.654;9.410;2023-01-26T08:46:11;67.70;;;42.17;;
4500;SDS011;2263;54.654;9.410;2023-01-26T08:48:41;52.60;;;39.43;;
4500;SDS011;2263;54.654;9.410;2023-01-26T08:51:11;57.73;;;39.40;;
4500;SDS011;2263;54.654;9.410;2023-01-26T08:53:38;55.63;;;37.37;;
4500;SDS011;2263;54.654;9.410;2023-01-26T08:56:06;59.87;;;42.17;;
4500;SDS011;2263;54.654;9.410;2023-01-26T08:58:35;49.10;;;36.20;;
4500;SDS011;2263;54.654;9.410;2023-01-26T09:01:06;49.17;;;35.87;;
4500;SDS011;2263;54.654;9.410;2023-01-26T09:03:36;58.83;;;34.63;;
4500;SDS011;2263;54.654;9.410;2023-01-26T09:06:04;41.77;;;31.93;;
4500;SDS011;2263;54.654;9.410;2023-01-26T09:08:33;42.97;;;29.37;;
4500;SDS011;2263;54.654;9.410;2023-01-26T09:11:00;47.97;;;28.83;;
4500;SDS011;2263;54.654;9.410;2023-01-26T09:13:27;45.80;;;30.60;;
4500;SDS011;2263;54.654;9.410;2023-01-26T09:15:54;36.53;;;26.90;;
4500;SDS011;2263;54.654;9.410;2023-01-26T09:18:22;49.87;;;27.90;;
4500;SDS011;2263;54.654;9.410;2023-01-26T09:20:49;40.77;;;26.90;;
4500;SDS011;2263;54.654;9.410;2023-01-26T09:23:16;37.73;;;26.37;;
4500;SDS011;2263;54.654;9.410;2023-01-26T09:25:44;32.83;;;22.37;;
4500;SDS011;2263;54.654;9.410;2023-01-26T09:28:11;33.43;;;22.30;;
4500;SDS011;2263;54.654;9.410;2023-01-26T09:30:38;38.97;;;20.10;;
4500;SDS011;2263;54.654;9.410;2023-01-26T09:33:05;31.43;;;18.80;;
4500;SDS011;2263;54.654;9.410;2023-01-26T09:35:34;29.47;;;15.60;;
4500;SDS011;2263;54.654;9.410;2023-01-26T09:38:01;21.63;;;12.33;;
4500;SDS011;2263;54.654;9.410;2023-01-26T09:40:44;24.23;;;13.20;;
4500;SDS011;2263;54.654;9.410;2023-01-26T09:43:41;28.63;;;12.23;;
4500;SDS011;2263;54.654;9.410;2023-01-26T09:49:05;22.13;;;9.47;;
4500;SDS011;2263;54.654;9.410;2023-01-26T09:51:42;19.50;;;7.10;;
4500;SDS011;2263;54.654;9.410;2023-01-26T09:54:40;14.80;;;7.93;;
4500;SDS011;2263;54.654;9.410;2023-01-26T09:57:18;20.33;;;7.47;;
4500;SDS011;2263;54.654;9.410;2023-01-26T09:59:57;18.07;;;8.40;;
4500;SDS011;2263;54.654;9.410;2023-01-26T10:05:41;23.73;;;6.30;;
4500;SDS011;2263;54.654;9.410;2023-01-26T10:08:13;14.53;;;4.43;;
4500;SDS011;2263;54.654;9.410;2023-01-26T10:10:52;10.20;;;3.33;;
4500;SDS011;2263;54.654;9.410;2023-01-26T10:13:25;17.73;;;4.40;;
4500;SDS011;2263;54.654;9.410;2023-01-26T10:16:02;7.90;;;5.63;;
4500;SDS011;2263;54.654;9.410;2023-01-26T10:18:36;7.50;;;3.87;;
4500;SDS011;2263;54.654;9.410;2023-01-26T10:21:17;9.20;;;3.60;;
4500;SDS011;2263;54.654;9.410;2023-01-26T10:23:48;11.80;;;3.60;;
4500;SDS011;2263;54.654;9.410;2023-01-26T10:26:20;10.30;;;3.10;;
4500;SDS011;2263;54.654;9.410;2023-01-26T10:28:50;6.33;;;2.27;;
4500;SDS011;2263;54.654;9.410;2023-01-26T10:31:22;6.97;;;3.23;;
4500;SDS011;2263;54.654;9.410;2023-01-26T10:34:00;12.67;;;3.87;;
4500;SDS011;2263;54.654;9.410;2023-01-26T10:36:35;16.33;;;2.60;;
4500;SDS011;2263;54.654;9.410;2023-01-26T10:39:03;7.53;;;2.30;;
4500;SDS011;2263;54.654;9.410;2023-01-26T10:41:32;15.60;;;3.17;;
4500;SDS011;2263;54.654;9.410;2023-01-26T10:46:40;8.93;;;3.87;;
4500;SDS011;2263;54.654;9.410;2023-01-26T10:51:36;19.03;;;2.73;;
4500;SDS011;2263;54.654;9.410;2023-01-26T10:56:55;22.67;;;4.67;;
4500;SDS011;2263;54.654;9.410;2023-01-26T10:59:37;10.17;;;2.40;;
4500;SDS011;2263;54.654;9.410;2023-01-26T11:02:18;8.67;;;2.90;;
4500;SDS011;2263;54.654;9.410;2023-01-26T11:07:39;7.53;;;1.70;;
4500;SDS011;2263;54.654;9.410;2023-01-26T11:13:12;8.70;;;1.87;;
4500;SDS011;2263;54.654;9.410;2023-01-26T11:15:50;5.73;;;2.80;;
4500;SDS011;2263;54.654;9.410;2023-01-26T11:24:13;7.40;;;3.13;;
4500;SDS011;2263;54.654;9.410;2023-01-26T11:29:45;8.53;;;3.23;;
4500;SDS011;2263;54.654;9.410;2023-01-26T11:51:54;17.30;;;8.90;;
4500;SDS011;2263;54.654;9.410;2023-01-26T11:57:23;19.67;;;7.37;;
4500;SDS011;2263;54.654;9.410;2023-01-26T12:00:04;17.13;;;6.93;;
4500;SDS011;2263;54.654;9.410;2023-01-26T12:03:03;6.27;;;5.20;;
4500;SDS011;2263;54.654;9.410;2023-01-26T12:05:42;20.03;;;5.93;;
4500;SDS011;2263;54.654;9.410;2023-01-26T12:08:25;12.20;;;4.90;;
4500;SDS011;2263;54.654;9.410;2023-01-26T12:11:24;7.43;;;3.40;;
4500;SDS011;2263;54.654;9.410;2023-01-26T12:14:14;7.70;;;3.63;;
4500;SDS011;2263;54.654;9.410;2023-01-26T12:19:59;5.80;;;3.30;;
4500;SDS011;2263;54.654;9.410;2023-01-26T12:22:37;14.77;;;4.40;;
4500;SDS011;2263;54.654;9.410;2023-01-26T12:33:32;12.63;;;3.37;;
4500;SDS011;2263;54.654;9.410;2023-01-26T12:39:26;13.13;;;3.20;;
4500;SDS011;2263;54.654;9.410;2023-01-26T12:49:50;5.83;;;3.17;;
4500;SDS011;2263;54.654;9.410;2023-01-26T12:52:37;4.50;;;2.60;;
4500;SDS011;2263;54.654;9.410;2023-01-26T12:57:49;9.57;;;3.40;;
4500;SDS011;2263;54.654;9.410;2023-01-26T13:00:24;4.50;;;2.60;;
4500;SDS011;2263;54.654;9.410;2023-01-26T13:03:02;13.20;;;3.03;;
4500;SDS011;2263;54.654;9.410;2023-01-26T13:08:48;18.23;;;3.70;;
4500;SDS011;2263;54.654;9.410;2023-01-26T13:27:35;8.50;;;2.77;;
4500;SDS011;2263;54.654;9.410;2023-01-26T13:33:12;10.70;;;2.40;;
4500;SDS011;2263;54.654;9.410;2023-01-26T13:35:49;10.33;;;3.37;;
4500;SDS011;2263;54.654;9.410;2023-01-26T13:40:54;9.27;;;3.43;;
4500;SDS011;2263;54.654;9.410;2023-01-26T13:46:22;8.73;;;3.40;;
4500;SDS011;2263;54.654;9.410;2023-01-26T13:48:55;10.50;;;3.43;;
4500;SDS011;2263;54.654;9.410;2023-01-26T13:53:56;10.17;;;2.50;;
4500;SDS011;2263;54.654;9.410;2023-01-26T13:56:31;13.80;;;5.67;;
4500;SDS011;2263;54.654;9.410;2023-01-26T14:01:53;9.13;;;2.90;;
4500;SDS011;2263;54.654;9.410;2023-01-26T14:04:30;7.63;;;3.33;;
4500;SDS011;2263;54.654;9.410;2023-01-26T14:09:49;8.47;;;3.80;;
4500;SDS011;2263;54.654;9.410;2023-01-26T14:13:00;7.73;;;3.37;;
4500;SDS011;2263;54.654;9.410;2023-01-26T14:15:44;7.00;;;2.90;;
4500;SDS011;2263;54.654;9.410;2023-01-26T14:18:04;9.00;;;4.10;;
4500;SDS011;2263;54.654;9.410;2023-01-26T14:20:35;8.03;;;4.30;;
4500;SDS011;2263;54.654;9.410;2023-01-26T14:25:57;7.43;;;3.40;;
4500;SDS011;2263;54.654;9.410;2023-01-26T14:28:26;12.37;;;3.53;;
4500;SDS011;2263;54.654;9.410;2023-01-26T14:33:49;6.87;;;3.57;;
4500;SDS011;2263;54.654;9.410;2023-01-26T14:36:21;5.73;;;3.17;;
4500;SDS011;2263;54.654;9.410;2023-01-26T14:38:53;9.43;;;4.00;;
4500;SDS011;2263;54.654;9.410;2023-01-26T14:41:26;5.80;;;3.83;;
4500;SDS011;2263;54.654;9.410;2023-01-26T14:43:58;4.93;;;3.70;;
4500;SDS011;2263;54.654;9.410;2023-01-26T14:46:34;12.07;;;3.60;;
4500;SDS011;2263;54.654;9.410;2023-01-26T14:49:21;7.23;;;3.57;;
4500;SDS011;2263;54.654;9.410;2023-01-26T14:51:55;8.90;;;3.27;;
4500;SDS011;2263;54.654;9.410;2023-01-26T14:54:25;7.90;;;3.27;;
4500;SDS011;2263;54.654;9.410;2023-01-26T14:56:56;14.50;;;4.93;;
4500;SDS011;2263;54.654;9.410;2023-01-26T14:59:25;7.93;;;3.37;;
4500;SDS011;2263;54.654;9.410;2023-01-26T15:02:16;10.23;;;3.60;;
4500;SDS011;2263;54.654;9.410;2023-01-26T15:04:47;10.57;;;4.03;;
4500;SDS011;2263;54.654;9.410;2023-01-26T15:15:46;14.50;;;5.23;;
4500;SDS011;2263;54.654;9.410;2023-01-26T15:18:30;8.37;;;4.40;;
4500;SDS011;2263;54.654;9.410;2023-01-26T15:20:59;13.23;;;4.83;;
4500;SDS011;2263;54.654;9.410;2023-01-26T15:23:50;18.13;;;5.87;;
4500;SDS011;2263;54.654;9.410;2023-01-26T15:26:28;8.13;;;4.40;;
4500;SDS011;2263;54.654;9.410;2023-01-26T15:29:02;14.77;;;4.30;;
4500;SDS011;2263;54.654;9.410;2023-01-26T15:31:32;10.90;;;4.30;;
4500;SDS011;2263;54.654;9.410;2023-01-26T15:34:02;7.27;;;3.87;;
4500;SDS011;2263;54.654;9.410;2023-01-26T15:36:42;11.10;;;5.90;;
4500;SDS011;2263;54.654;9.410;2023-01-26T15:39:14;15.93;;;5.27;;
4500;SDS011;2263;54.654;9.410;2023-01-26T15:41:44;3.80;;;3.50;;
4500;SDS011;2263;54.654;9.410;2023-01-26T15:44:16;15.30;;;6.20;;
4500;SDS011;2263;54.654;9.410;2023-01-26T15:46:45;10.27;;;4.13;;
4500;SDS011;2263;54.654;9.410;2023-01-26T15:49:12;4.83;;;4.10;;
4500;SDS011;2263;54.654;9.410;2023-01-26T15:51:40;10.47;;;4.30;;
4500;SDS011;2263;54.654;9.410;2023-01-26T15:54:08;11.00;;;3.77;;
4500;SDS011;2263;54.654;9.410;2023-01-26T15:56:36;9.67;;;5.63;;
4500;SDS011;2263;54.654;9.410;2023-01-26T15:59:03;5.20;;;4.00;;
4500;SDS011;2263;54.654;9.410;2023-01-26T16:01:31;10.13;;;4.30;;
4500;SDS011;2263;54.654;9.410;2023-01-26T16:03:59;6.03;;;3.70;;
4500;SDS011;2263;54.654;9.410;2023-01-26T16:06:30;13.73;;;3.60;;
4500;SDS011;2263;54.654;9.410;2023-01-26T16:08:58;9.20;;;3.80;;
4500;SDS011;2263;54.654;9.410;2023-01-26T16:11:29;8.60;;;4.50;;
4500;SDS011;2263;54.654;9.410;2023-01-26T16:14:01;7.47;;;4.03;;
4500;SDS011;2263;54.654;9.410;2023-01-26T16:16:30;11.47;;;4.87;;
4500;SDS011;2263;54.654;9.410;2023-01-26T16:18:58;7.10;;;4.80;;
4500;SDS011;2263;54.654;9.410;2023-01-26T16:21:31;8.33;;;5.00;;
4500;SDS011;2263;54.654;9.410;2023-01-26T16:24:00;4.90;;;4.07;;
4500;SDS011;2263;54.654;9.410;2023-01-26T16:26:28;17.03;;;5.53;;
4500;SDS011;2263;54.654;9.410;2023-01-26T16:28:56;7.90;;;4.73;;
4500;SDS011;2263;54.654;9.410;2023-01-26T16:31:25;19.10;;;5.40;;
4500;SDS011;2263;54.654;9.410;2023-01-26T16:33:57;5.60;;;3.30;;
4500;SDS011;2263;54.654;9.410;2023-01-26T16:36:25;7.60;;;4.90;;
4500;SDS011;2263;54.654;9.410;2023-01-26T16:38:52;10.73;;;5.70;;
4500;SDS011;2263;54.654;9.410;2023-01-26T16:41:24;12.23;;;5.47;;
4500;SDS011;2263;54.654;9.410;2023-01-26T16:43:54;7.77;;;6.10;;
4500;SDS011;2263;54.654;9.410;2023-01-26T16:46:23;7.70;;;5.00;;
4500;SDS011;2263;54.654;9.410;2023-01-26T16:48:51;11.07;;;6.10;;
4500;SDS011;2263;54.654;9.410;2023-01-26T16:51:29;20.67;;;7.60;;
4500;SDS011;2263;54.654;9.410;2023-01-26T16:54:01;13.90;;;6.90;;
4500;SDS011;2263;54.654;9.410;2023-01-26T16:56:28;11.30;;;6.70;;
4500;SDS011;2263;54.654;9.410;2023-01-26T16:58:58;10.33;;;7.50;;
4500;SDS011;2263;54.654;9.410;2023-01-26T17:01:26;13.37;;;6.33;;
4500;SDS011;2263;54.654;9.410;2023-01-26T17:03:57;6.67;;;4.60;;
4500;SDS011;2263;54.654;9.410;2023-01-26T17:06:24;6.57;;;5.00;;
4500;SDS011;2263;54.654;9.410;2023-01-26T17:08:52;10.80;;;5.30;;
4500;SDS011;2263;54.654;9.410;2023-01-26T17:11:20;4.77;;;4.03;;
4500;SDS011;2263;54.654;9.410;2023-01-26T17:13:51;4.43;;;4.00;;
4500;SDS011;2263;54.654;9.410;2023-01-26T17:16:20;4.53;;;3.87;;
4500;SDS011;2263;54.654;9.410;2023-01-26T17:18:55;5.93;;;3.47;;
4500;SDS011;2263;54.654;9.410;2023-01-26T17:21:22;3.43;;;3.13;;
4500;SDS011;2263;54.654;9.410;2023-01-26T17:23:53;3.70;;;3.07;;
4500;SDS011;2263;54.654;9.410;2023-01-26T17:26:21;10.93;;;3.60;;
4500;SDS011;2263;54.654;9.410;2023-01-26T17:28:51;6.83;;;4.00;;
4500;SDS011;2263;54.654;9.410;2023-01-26T17:31:20;4.70;;;3.40;;
4500;SDS011;2263;54.654;9.410;2023-01-26T17:33:48;3.80;;;3.50;;
4500;SDS011;2263;54.654;9.410;2023-01-26T17:36:16;8.60;;;5.17;;
4500;SDS011;2263;54.654;9.410;2023-01-26T17:38:44;7.93;;;5.20;;
4500;SDS011;2263;54.654;9.410;2023-01-26T17:41:13;7.93;;;5.90;;
4500;SDS011;2263;54.654;9.410;2023-01-26T17:43:40;9.10;;;5.70;;
4500;SDS011;2263;54.654;9.410;2023-01-26T17:46:11;11.93;;;5.30;;